Time;durP1;ratioP1;P1;durP2;ratioP2;P2;SDS_P1;SDS_P2;PMS_P1;PMS_P2;Temp;Humidity;BMP_temperature;BMP_pressure;BME280_temperature;BME280_humidity;BME280_pressure;Samples;Min_cycle;Max_cycle;Signal;HPM_P1;HPM_P2
2023/01/14 00:01:24;;;;;;;0.70;0.70;;;;;;;-4.96;90.81;99908.75;4897799;29;20159;-83
2023/01/14 00:03:52;;;;;;;0.68;0.68;;;;;;;-4.95;91.04;99913.03;4898069;29;20143;-84
2023/01/14 00:06:21;;;;;;;0.70;0.70;;;;;;;-4.95;91.03;99894.59;4897528;29;20063;-84
2023/01/14 00:09:00;;;;;;;0.70;0.70;;;;;;;-5.00;91.08;99907.28;4897685;29;20091;-85
2023/01/14 00:14:14;;;;;;;0.65;0.65;;;;;;;-4.93;91.33;99911.13;4897822;29;20064;-84
2023/01/14 00:16:41;;;;;;;0.70;0.70;;;;;;;-4.95;91.26;99913.03;4897811;29;20052;-84
2023/01/14 00:19:09;;;;;;;0.70;0.70;;;;;;;-4.92;91.31;99915.41;4897633;29;20052;-83
2023/01/14 00:21:37;;;;;;;0.50;0.50;;;;;;;-4.93;91.20;99902.38;4897567;29;20048;-82
2023/01/14 00:24:04;;;;;;;0.60;0.60;;;;;;;-4.93;91.30;99913.75;4881071;29;20062;-84
2023/01/14 00:26:31;;;;;;;0.60;0.60;;;;;;;-4.92;91.31;99915.41;4897290;29;20057;-85
2023/01/14 00:28:58;;;;;;;0.60;0.60;;;;;;;-4.91;91.53;99898.66;4880649;29;20785;-84
2023/01/14 00:31:27;;;;;;;0.70;0.70;;;;;;;-4.94;91.38;99901.53;4886812;29;20045;-83
2023/01/14 00:33:57;;;;;;;0.60;0.60;;;;;;;-4.92;91.44;99872.44;4879146;29;20136;-84
2023/01/14 00:36:25;;;;;;;0.80;0.80;;;;;;;-4.90;91.49;99892.44;4879221;29;20076;-83
2023/01/14 00:38:53;;;;;;;0.75;0.75;;;;;;;-4.87;91.37;99889.53;4862287;29;20074;-83
2023/01/14 00:41:23;;;;;;;0.60;0.60;;;;;;;-4.85;91.34;99892.06;4864572;29;20462;-82
2023/01/14 00:43:52;;;;;;;0.60;0.60;;;;;;;-4.87;91.64;99886.91;4879225;29;20108;-82
2023/01/14 00:46:25;;;;;;;0.70;0.70;;;;;;;-4.80;91.47;99882.00;4879758;29;20068;-83
2023/01/14 00:48:53;;;;;;;0.70;0.70;;;;;;;-4.83;91.52;99888.34;4883452;29;20090;-83
2023/01/14 00:51:20;;;;;;;0.60;0.60;;;;;;;-4.82;91.69;99874.22;4884396;29;20085;-84
2023/01/14 00:53:48;;;;;;;0.80;0.80;;;;;;;-4.83;91.43;99869.09;4880742;29;20060;-88
2023/01/14 00:56:17;;;;;;;0.60;0.60;;;;;;;-4.84;91.51;99886.66;4881892;29;20159;-82
2023/01/14 00:58:44;;;;;;;0.80;0.80;;;;;;;-4.86;91.40;99872.81;4862303;29;20481;-84
2023/01/14 01:01:12;;;;;;;0.70;0.70;;;;;;;-4.85;91.59;99868.38;4880033;29;20129;-84
2023/01/14 01:03:52;;;;;;;0.73;0.73;;;;;;;-4.84;91.59;99870.84;4887239;29;20052;-83
2023/01/14 01:06:22;;;;;;;0.70;0.70;;;;;;;-4.83;91.78;99875.19;4885774;29;20052;-82
2023/01/14 01:08:58;;;;;;;0.70;0.70;;;;;;;-4.82;91.57;99874.22;4884439;29;20059;-83
2023/01/14 01:11:26;;;;;;;0.70;0.70;;;;;;;-4.80;91.51;99871.47;4903444;29;20052;-84
2023/01/14 01:13:54;;;;;;;0.73;0.73;;;;;;;-4.80;91.26;99879.38;4903426;29;20079;-83
2023/01/14 01:16:23;;;;;;;0.68;0.68;;;;;;;-4.79;91.29;99866.06;4884934;29;20057;-83
2023/01/14 01:18:53;;;;;;;0.50;0.50;;;;;;;-4.80;91.19;99860.94;4888865;29;20057;-85
2023/01/14 01:21:22;;;;;;;0.82;0.82;;;;;;;-4.84;90.93;99859.50;4867786;29;20108;-85
2023/01/14 01:23:49;;;;;;;0.65;0.65;;;;;;;-4.87;91.35;99865.84;4880790;29;20515;-85
2023/01/14 01:26:22;;;;;;;0.70;0.70;;;;;;;-4.85;91.52;99855.19;4864705;29;20071;-85
2023/01/14 01:28:54;;;;;;;0.60;0.60;;;;;;;-4.81;91.48;99864.50;4864712;29;20049;-85
2023/01/14 01:31:25;;;;;;;0.85;0.85;;;;;;;-4.86;91.04;99872.81;4880072;29;20048;-84
2023/01/14 01:33:53;;;;;;;0.90;0.90;;;;;;;-4.85;91.21;99863.09;4879555;29;20088;-83
2023/01/14 01:36:25;;;;;;;0.60;0.60;;;;;;;-4.87;91.28;99857.94;4896250;29;20112;-84
2023/01/14 01:38:53;;;;;;;0.70;0.70;;;;;;;-4.89;91.19;99835.34;4896361;29;20603;-84
2023/01/14 01:41:25;;;;;;;0.85;0.85;;;;;;;-4.87;91.08;99857.94;4896033;29;20144;-83
2023/01/14 01:43:58;;;;;;;0.70;0.70;;;;;;;-4.88;91.15;99858.09;4896192;29;20120;-83
2023/01/14 01:46:26;;;;;;;0.60;0.60;;;;;;;-4.86;91.27;99861.41;4879243;29;20143;-82
2023/01/14 01:48:55;;;;;;;0.65;0.65;;;;;;;-4.84;91.04;99865.59;4879289;29;20119;-82
2023/01/14 01:51:25;;;;;;;0.70;0.70;;;;;;;-4.85;90.95;99863.94;4896008;29;20090;-83
2023/01/14 01:53:54;;;;;;;0.50;0.50;;;;;;;-4.85;91.36;99866.56;4895006;29;20056;-81
2023/01/14 01:56:25;;;;;;;0.70;0.70;;;;;;;-4.85;91.19;99866.56;4895909;29;20059;-82
2023/01/14 01:58:53;;;;;;;0.73;0.73;;;;;;;-4.86;91.21;99866.69;4895964;29;20108;-82
2023/01/14 02:01:21;;;;;;;0.73;0.73;;;;;;;-4.83;91.15;99867.28;4879217;29;20100;-83
2023/01/14 02:03:48;;;;;;;0.60;0.60;;;;;;;-4.79;91.15;99868.69;4895894;29;20052;-83
2023/01/14 02:06:16;;;;;;;0.50;0.50;;;;;;;-4.77;91.61;99870.38;4895970;29;20091;-83
2023/01/14 02:08:47;;;;;;;0.70;0.70;;;;;;;-4.77;91.06;99857.22;4896305;29;20052;-83
2023/01/14 02:11:46;;;;;;;0.70;0.70;;;;;;;-4.78;91.07;99864.28;4896359;29;20049;-83
2023/01/14 02:14:13;;;;;;;0.80;0.80;;;;;;;-4.81;91.20;99864.50;4838279;29;20126;-84
2023/01/14 02:17:21;;;;;;;0.60;0.60;;;;;;;-4.84;91.20;99868.22;4840781;29;20542;-82
2023/01/14 02:20:03;;;;;;;0.70;0.70;;;;;;;-4.82;91.25;99861.03;4839487;29;20670;-83
2023/01/14 02:22:33;;;;;;;0.65;0.65;;;;;;;-4.84;91.13;99857.69;4838318;29;20057;-83
2023/01/14 02:25:16;;;;;;;0.55;0.55;;;;;;;-4.85;91.05;99868.38;4842263;29;20880;-82
2023/01/14 02:28:16;;;;;;;0.80;0.80;;;;;;;-4.84;91.41;99862.13;4856715;29;20045;-83
2023/01/14 02:30:57;;;;;;;0.70;0.70;;;;;;;-4.89;91.37;99867.75;4840814;29;20113;-83
2023/01/14 02:33:51;;;;;;;0.70;0.70;;;;;;;-4.88;91.41;99876.53;4840561;29;20181;-83
2023/01/14 02:36:47;;;;;;;0.80;0.80;;;;;;;-4.86;91.42;99878.06;4855799;29;20065;-83
2023/01/14 02:39:27;;;;;;;0.70;0.70;;;;;;;-4.82;91.41;99881.28;4840565;29;20057;-83
2023/01/14 02:44:49;;;;;;;0.75;0.75;;;;;;;-4.91;91.30;99874.97;4825670;29;20085;-84
2023/01/14 02:47:20;;;;;;;0.90;0.90;;;;;;;-4.91;91.13;99876.75;4855986;29;20068;-84
2023/01/14 02:49:51;;;;;;;0.80;0.80;;;;;;;-4.89;91.39;99870.41;4874312;29;20051;-84
2023/01/14 02:52:18;;;;;;;0.60;0.60;;;;;;;-4.86;91.22;99885.97;4863219;29;20147;-83
2023/01/14 02:54:58;;;;;;;0.70;0.70;;;;;;;-4.84;91.18;99891.94;4895717;29;20457;-82
2023/01/14 02:57:55;;;;;;;0.70;0.70;;;;;;;-4.88;91.18;99885.25;4883481;29;20068;-83
2023/01/14 03:00:35;;;;;;;0.90;0.90;;;;;;;-4.92;91.01;99889.09;4903179;29;20462;-84
2023/01/14 03:03:25;;;;;;;0.68;0.68;;;;;;;-4.96;91.01;99882.41;4878921;29;20063;-82
2023/01/14 03:06:05;;;;;;;0.82;0.82;;;;;;;-4.98;91.22;99880.84;4878649;29;20091;-81
2023/01/14 03:08:53;;;;;;;0.75;0.75;;;;;;;-4.97;91.23;99867.56;4893637;29;20072;-81
2023/01/14 03:11:31;;;;;;;0.60;0.60;;;;;;;-4.99;91.42;99871.28;4863213;29;20084;-82
2023/01/14 03:14:03;;;;;;;0.73;0.73;;;;;;;-4.99;91.59;99876.53;4878004;29;20049;-82
2023/01/14 03:16:43;;;;;;;0.70;0.70;;;;;;;-5.00;91.51;99873.06;4862932;29;20120;-82
2023/01/14 03:19:21;;;;;;;0.80;0.80;;;;;;;-5.02;91.68;99873.19;4878268;29;20057;-83
2023/01/14 03:21:51;;;;;;;0.77;0.77;;;;;;;-5.01;91.64;99863.50;4878333;29;20080;-82
2023/01/14 03:24:23;;;;;;;0.70;0.70;;;;;;;-5.02;91.55;99869.72;4894935;29;20055;-83
2023/01/14 03:26:52;;;;;;;0.88;0.88;;;;;;;-5.04;91.62;99853.22;4880886;29;20053;-83
2023/01/14 03:29:26;;;;;;;0.80;0.80;;;;;;;-5.05;91.76;99868.16;4881568;29;20131;-83
2023/01/14 03:32:02;;;;;;;0.80;0.80;;;;;;;-5.08;91.81;99863.16;4882072;29;20057;-81
2023/01/14 03:34:35;;;;;;;0.70;0.70;;;;;;;-5.08;91.95;99855.25;4881575;29;20052;-81
2023/01/14 03:37:05;;;;;;;0.63;0.63;;;;;;;-5.05;91.83;99862.06;4898301;29;20158;-82
2023/01/14 03:39:33;;;;;;;0.50;0.50;;;;;;;-5.09;92.04;99866.75;4881582;29;20100;-81
2023/01/14 03:42:19;;;;;;;0.85;0.85;;;;;;;-5.05;92.05;99862.06;4898182;29;20064;-82
2023/01/14 03:44:49;;;;;;;0.57;0.57;;;;;;;-5.05;92.05;99851.53;4898658;29;20469;-82
2023/01/14 03:47:17;;;;;;;0.73;0.73;;;;;;;-5.07;92.17;99858.72;4898306;29;20152;-82
2023/01/14 03:49:44;;;;;;;0.70;0.70;;;;;;;-5.07;91.93;99853.47;4881817;29;20508;-82
2023/01/14 03:52:14;;;;;;;0.80;0.80;;;;;;;-5.12;92.23;99845.09;4881552;29;20087;-84
2023/01/14 03:54:51;;;;;;;0.70;0.70;;;;;;;-5.08;91.96;99851.81;4898001;29;20055;-86
2023/01/14 03:57:45;;;;;;;0.90;0.90;;;;;;;-5.11;92.06;99871.31;4881388;29;20071;-83
2023/01/14 04:00:19;;;;;;;0.80;0.80;;;;;;;-5.13;91.99;99854.81;4881647;29;20463;-85
2023/01/14 04:02:46;;;;;;;0.70;0.70;;;;;;;-5.13;92.50;99848.69;4882155;29;20056;-84
2023/01/14 04:05:14;;;;;;;0.70;0.70;;;;;;;-5.13;92.39;99865.31;4883129;29;20075;-84
2023/01/14 04:07:41;;;;;;;0.88;0.88;;;;;;;-5.12;92.35;99855.63;4881842;29;20056;-86
2023/01/14 04:10:09;;;;;;;0.65;0.65;;;;;;;-5.14;92.18;99847.00;4898063;29;20060;-86
2023/01/14 04:15:20;;;;;;;0.73;0.73;;;;;;;-5.12;92.39;99861.72;4881119;29;20432;-84
2023/01/14 04:15:23;;;;;;;0.80;0.80;;;;;;;-5.13;92.31;99861.88;4881296;29;20151;-84
2023/01/14 04:17:50;;;;;;;0.95;0.95;;;;;;;-5.11;92.28;99867.84;4898853;29;20143;-85
2023/01/14 04:20:17;;;;;;;0.70;0.70;;;;;;;-5.14;92.26;99873.34;4900204;29;20120;-83
2023/01/14 04:22:44;;;;;;;0.70;0.70;;;;;;;-5.10;92.33;99866.88;4905236;29;20053;-84
2023/01/14 04:25:11;;;;;;;0.70;0.70;;;;;;;-5.12;92.29;99876.69;4888295;29;20059;-85
2023/01/14 04:27:38;;;;;;;0.75;0.75;;;;;;;-5.10;92.48;99882.66;4900678;29;20451;-84
2023/01/14 04:30:06;;;;;;;0.70;0.70;;;;;;;-5.06;92.51;99876.22;4881152;29;20054;-82
2023/01/14 04:32:33;;;;;;;0.70;0.70;;;;;;;-5.05;92.44;99872.59;4897609;29;20084;-83
2023/01/14 04:35:00;;;;;;;0.60;0.60;;;;;;;-5.07;92.46;99879.78;4898897;29;20052;-83
2023/01/14 04:37:28;;;;;;;0.82;0.82;;;;;;;-5.07;92.42;99875.34;4880873;29;20635;-84
2023/01/14 04:39:55;;;;;;;0.70;0.70;;;;;;;-5.13;92.28;99864.50;4897496;29;20048;-84
2023/01/14 04:42:28;;;;;;;0.70;0.70;;;;;;;-5.13;92.24;99878.50;4880768;29;20139;-82
2023/01/14 04:44:57;;;;;;;0.85;0.85;;;;;;;-5.13;92.31;99878.50;4896475;29;20056;-85
2023/01/14 04:47:25;;;;;;;0.75;0.75;;;;;;;-5.12;92.52;99869.63;4897769;29;20519;-83
2023/01/14 04:49:52;;;;;;;0.80;0.80;;;;;;;-5.11;92.60;99888.91;4880869;29;20044;-84
2023/01/14 04:52:20;;;;;;;0.75;0.75;;;;;;;-5.12;92.53;99887.22;4897638;29;20157;-84
2023/01/14 04:54:47;;;;;;;0.60;0.60;;;;;;;-5.15;92.48;99885.66;4897959;29;20057;-85
2023/01/14 04:57:14;;;;;;;0.70;0.70;;;;;;;-5.10;92.56;99890.56;4893300;29;20088;-84
2023/01/14 04:59:41;;;;;;;0.70;0.70;;;;;;;-5.10;92.55;99888.75;4877280;29;20190;-83
2023/01/14 05:02:08;;;;;;;0.65;0.65;;;;;;;-5.12;92.36;99882.78;4892678;29;20104;-85
2023/01/14 05:04:35;;;;;;;0.60;0.60;;;;;;;-5.15;92.44;99875.13;4892798;29;20675;-82
2023/01/14 05:07:04;;;;;;;0.60;0.60;;;;;;;-5.12;92.48;99880.16;4881878;29;20135;-81
2023/01/14 05:09:31;;;;;;;0.68;0.68;;;;;;;-5.11;92.48;99884.47;4878535;29;20067;-82
2023/01/14 05:11:58;;;;;;;0.82;0.82;;;;;;;-5.11;92.51;99878.38;4878002;29;20148;-84
2023/01/14 05:14:30;;;;;;;0.70;0.70;;;;;;;-5.14;92.59;99866.31;4877585;29;20427;-84
2023/01/14 05:16:58;;;;;;;0.70;0.70;;;;;;;-5.17;92.54;99878.84;4879659;29;20052;-84
2023/01/14 05:19:25;;;;;;;0.73;0.73;;;;;;;-5.14;92.56;99895.25;4895175;29;20464;-89
2023/01/14 05:21:53;;;;;;;0.80;0.80;;;;;;;-5.16;92.51;99877.91;4882960;29;20109;-83
2023/01/14 05:24:20;;;;;;;0.80;0.80;;;;;;;-5.14;92.44;99900.50;4885319;29;20077;-83
2023/01/14 05:26:46;;;;;;;0.57;0.57;;;;;;;-5.13;92.26;99896.91;4885798;29;20053;-82
2023/01/14 05:29:13;;;;;;;0.70;0.70;;;;;;;-5.11;92.43;99888.91;4901416;29;20583;-82
2023/01/14 05:31:40;;;;;;;0.80;0.80;;;;;;;-5.15;92.56;99888.28;4886265;29;20053;-83
2023/01/14 05:34:07;;;;;;;0.88;0.88;;;;;;;-5.11;92.60;99899.44;4886620;29;20081;-82
2023/01/14 05:36:34;;;;;;;0.75;0.75;;;;;;;-5.12;92.39;99895.94;4884457;29;20057;-83
2023/01/14 05:39:02;;;;;;;0.90;0.90;;;;;;;-5.12;92.56;99887.22;4883750;29;20167;-83
2023/01/14 05:41:29;;;;;;;0.88;0.88;;;;;;;-5.10;92.29;99895.84;4878026;29;20045;-90
2023/01/14 05:46:41;;;;;;;0.68;0.68;;;;;;;-5.11;92.36;99905.53;4878367;29;20398;-83
2023/01/14 05:49:08;;;;;;;0.70;0.70;;;;;;;-5.11;92.13;99907.34;4878017;29;20053;-83
2023/01/14 05:51:35;;;;;;;0.75;0.75;;;;;;;-5.12;92.16;99876.69;4876465;29;20057;-83
2023/01/14 05:54:02;;;;;;;0.63;0.63;;;;;;;-5.10;92.23;99901.09;4877730;29;20177;-84
2023/01/14 05:56:29;;;;;;;0.80;0.80;;;;;;;-5.10;92.02;99907.19;4879093;29;20052;-83
2023/01/14 05:58:56;;;;;;;0.70;0.70;;;;;;;-5.09;92.02;99916.78;4896756;29;20057;-83
2023/01/14 06:06:54;;;;;;;0.70;0.70;;;;;;;-5.10;91.94;99904.56;4895875;29;20597;-83
2023/01/14 06:09:21;;;;;;;0.70;0.70;;;;;;;-5.09;91.88;99874.66;4895841;29;20496;-82
2023/01/14 06:12:01;;;;;;;0.90;0.90;;;;;;;-5.08;91.98;99904.44;4892999;29;20060;-82
2023/01/14 06:14:31;;;;;;;0.80;0.80;;;;;;;-5.06;91.92;99913.06;4895601;29;20067;-85
2023/01/14 06:16:58;;;;;;;0.75;0.75;;;;;;;-5.09;91.84;99900.13;4895876;29;20104;-82
2023/01/14 06:19:25;;;;;;;0.70;0.70;;;;;;;-5.10;91.89;99911.63;4895624;29;20143;-83
2023/01/14 06:21:53;;;;;;;0.68;0.68;;;;;;;-5.09;92.14;99908.88;4861949;29;20504;-83
2023/01/14 06:24:20;;;;;;;0.80;0.80;;;;;;;-5.07;91.94;99895.56;4893462;29;20080;-82
2023/01/14 06:26:47;;;;;;;0.80;0.80;;;;;;;-5.11;91.92;99904.69;4895753;29;20056;-84
2023/01/14 06:29:14;;;;;;;0.70;0.70;;;;;;;-5.11;91.91;99918.69;4894263;29;20077;-86
2023/01/14 06:31:42;;;;;;;0.70;0.70;;;;;;;-5.12;91.87;99909.09;4895525;29;20052;-86
2023/01/14 06:34:09;;;;;;;0.70;0.70;;;;;;;-5.10;92.23;99922.16;4895906;29;20051;-86
2023/01/14 06:36:37;;;;;;;0.90;0.90;;;;;;;-5.10;92.27;99909.00;4895042;29;20052;-87
2023/01/14 06:39:05;;;;;;;0.80;0.80;;;;;;;-5.09;92.20;99913.28;4889655;29;20056;-84
2023/01/14 06:41:32;;;;;;;0.63;0.63;;;;;;;-5.06;92.18;99920.97;4891784;29;20059;-83
2023/01/14 06:43:59;;;;;;;0.68;0.68;;;;;;;-5.04;92.24;99912.00;4897189;29;20078;-81
2023/01/14 06:46:26;;;;;;;0.80;0.80;;;;;;;-4.98;92.27;99921.19;4894012;29;20143;-83
2023/01/14 06:48:53;;;;;;;0.55;0.55;;;;;;;-4.98;91.90;99925.63;4894085;29;20392;-86
2023/01/14 06:51:21;;;;;;;0.80;0.80;;;;;;;-4.96;91.82;99931.56;4894380;29;20053;-81
2023/01/14 06:53:48;;;;;;;0.80;0.80;;;;;;;-4.97;91.94;99924.66;4876967;29;20072;-87
2023/01/14 06:56:17;;;;;;;0.60;0.60;;;;;;;-4.95;91.94;99930.63;4879182;29;20044;-87
2023/01/14 06:58:48;;;;;;;0.90;0.90;;;;;;;-4.95;92.04;99923.56;4897348;29;20052;-91
2023/01/14 07:01:15;;;;;;;0.70;0.70;;;;;;;-4.95;91.90;99926.19;4904635;29;20067;-92
2023/01/14 07:03:42;;;;;;;0.63;0.63;;;;;;;-4.96;91.65;99929.81;4885266;29;20045;-86
2023/01/14 07:06:09;;;;;;;0.70;0.70;;;;;;;-4.93;91.88;99923.44;4881886;29;20063;-83
2023/01/14 07:08:36;;;;;;;0.70;0.70;;;;;;;-4.93;91.65;99929.53;4880902;29;20119;-85
2023/01/14 07:11:04;;;;;;;0.70;0.70;;;;;;;-4.92;91.76;99920.69;4892247;29;20080;-84
2023/01/14 07:13:32;;;;;;;0.70;0.70;;;;;;;-4.90;91.86;99946.91;4903030;29;20059;-83
2023/01/14 07:15:59;;;;;;;0.55;0.55;;;;;;;-4.91;91.75;99926.78;4905950;29;20520;-84
2023/01/14 07:18:26;;;;;;;0.80;0.80;;;;;;;-4.90;91.48;99941.63;4896954;29;20522;-83
2023/01/14 07:20:57;;;;;;;0.70;0.70;;;;;;;-4.83;91.75;99929.66;4899049;29;20071;-84
2023/01/14 07:23:25;;;;;;;0.70;0.70;;;;;;;-4.88;91.92;99926.56;4898112;29;20057;-83
2023/01/14 07:25:56;;;;;;;0.60;0.60;;;;;;;-4.83;91.59;99927.84;4891209;29;20053;-85
2023/01/14 07:28:30;;;;;;;0.70;0.70;;;;;;;-4.79;91.68;99925.78;4542359;29;10001419;-88
2023/01/14 07:31:04;;;;;;;0.68;0.68;;;;;;;-4.83;91.41;99935.75;4894709;29;20266;-85
2023/01/14 07:33:32;;;;;;;0.75;0.75;;;;;;;-4.81;91.45;99914.53;4895405;29;20622;-88
2023/01/14 07:35:59;;;;;;;0.73;0.73;;;;;;;-4.73;91.34;99942.94;4896208;29;20104;-86
2023/01/14 07:38:26;;;;;;;0.77;0.77;;;;;;;-4.71;91.19;99956.78;4895171;29;20083;-85
2023/01/14 07:40:59;;;;;;;0.80;0.80;;;;;;;-4.76;91.02;99940.50;4895048;29;20080;-84
2023/01/14 07:43:29;;;;;;;0.70;0.70;;;;;;;-4.81;91.10;99932.97;4878549;29;20697;-84
2023/01/14 07:45:58;;;;;;;0.70;0.70;;;;;;;-4.74;91.12;99944.69;4867969;29;20472;-84
2023/01/14 07:48:25;;;;;;;0.60;0.60;;;;;;;-4.70;90.96;99958.47;4875020;29;20064;-84
2023/01/14 07:50:56;;;;;;;0.63;0.63;;;;;;;-4.70;91.04;99940.03;4878148;29;20112;-84
2023/01/14 07:53:23;;;;;;;0.60;0.60;;;;;;;-4.69;91.16;99952.22;4895327;29;20084;-85
2023/01/14 07:55:50;;;;;;;0.65;0.65;;;;;;;-4.67;91.26;99956.41;4894394;29;20055;-84
2023/01/14 07:58:18;;;;;;;0.70;0.70;;;;;;;-4.67;90.86;99922.16;4889613;29;20539;-84
2023/01/14 08:00:45;;;;;;;0.80;0.80;;;;;;;-4.67;90.74;99924.81;4882815;29;20055;-86
2023/01/14 08:03:13;;;;;;;0.70;0.70;;;;;;;-4.65;90.63;99949.22;4895970;29;20052;-86
2023/01/14 08:05:40;;;;;;;0.75;0.75;;;;;;;-4.61;90.61;99936.63;4862232;29;20456;-86
2023/01/14 08:08:07;;;;;;;0.60;0.60;;;;;;;-4.55;90.61;99951.97;4893281;29;20063;-85
2023/01/14 08:10:35;;;;;;;0.75;0.75;;;;;;;-4.55;90.32;99946.69;4874929;29;20100;-85
2023/01/14 08:13:03;;;;;;;0.77;0.77;;;;;;;-4.53;90.42;99943.91;4887379;29;20057;-85
2023/01/14 08:15:30;;;;;;;0.80;0.80;;;;;;;-4.50;90.24;99941.88;4878963;29;20051;-86
2023/01/14 08:17:59;;;;;;;0.73;0.73;;;;;;;-4.50;90.15;99946.31;4886944;29;20045;-84
2023/01/14 08:20:27;;;;;;;0.65;0.65;;;;;;;-4.50;90.29;99938.41;4885064;29;20060;-84
2023/01/14 08:22:59;;;;;;;0.90;0.90;;;;;;;-4.42;90.25;99950.00;4877964;29;20481;-88
2023/01/14 08:25:27;;;;;;;0.60;0.60;;;;;;;-4.43;90.26;99942.19;4889456;29;20059;-85
2023/01/14 08:27:54;;;;;;;0.75;0.75;;;;;;;-4.40;90.20;99950.72;4886022;29;20049;-88
2023/01/14 08:30:22;;;;;;;0.90;0.90;;;;;;;-4.40;89.89;99928.81;4888351;29;20530;-86
2023/01/14 08:32:49;;;;;;;0.70;0.70;;;;;;;-4.41;89.92;99930.56;4894087;29;20056;-87
2023/01/14 08:35:16;;;;;;;0.70;0.70;;;;;;;-4.39;89.77;99926.03;4877003;29;20057;-85
2023/01/14 08:37:43;;;;;;;0.65;0.65;;;;;;;-4.40;89.78;99932.25;4893585;29;20550;-84
2023/01/14 08:40:12;;;;;;;0.70;0.70;;;;;;;-4.43;89.69;99919.34;4876700;29;20056;-89
2023/01/14 08:42:40;;;;;;;0.90;0.90;;;;;;;-4.38;89.88;99945.28;4892470;29;20056;-86
2023/01/14 08:45:07;;;;;;;0.85;0.85;;;;;;;-4.33;89.64;99926.47;4890929;29;20092;-89
2023/01/14 08:47:37;;;;;;;0.60;0.60;;;;;;;-4.41;89.65;99937.66;4891286;29;20504;-87
2023/01/14 08:50:06;;;;;;;0.60;0.60;;;;;;;-4.38;89.54;99938.25;4875005;29;20065;-87
2023/01/14 08:52:36;;;;;;;0.73;0.73;;;;;;;-4.33;89.70;99943.13;4883987;29;20048;-86
2023/01/14 08:55:04;;;;;;;0.80;0.80;;;;;;;-4.33;89.81;99935.22;4851197;29;20055;-85
2023/01/14 08:57:31;;;;;;;0.90;0.90;;;;;;;-4.32;90.05;99946.63;4888735;29;20439;-85
2023/01/14 09:00:00;;;;;;;0.90;0.90;;;;;;;-4.33;89.77;99937.03;4895836;29;20120;-87
2023/01/14 09:02:32;;;;;;;0.70;0.70;;;;;;;-4.35;90.02;99934.53;4883574;29;20053;-88
2023/01/14 09:05:01;;;;;;;0.70;0.70;;;;;;;-4.32;89.99;99939.53;4890544;29;20430;-86
2023/01/14 09:18:42;;;;;;;0.93;0.93;;;;;;;-4.38;90.43;99917.16;4893258;29;20056;-84
2023/01/14 09:21:12;;;;;;;0.77;0.77;;;;;;;-4.44;90.63;99930.00;4892009;29;20136;-92
2023/01/14 09:23:41;;;;;;;0.90;0.90;;;;;;;-4.40;90.85;99932.25;4888967;29;20057;-88
2023/01/14 09:26:08;;;;;;;0.80;0.80;;;;;;;-4.36;91.10;99935.47;4902536;29;20088;-88
2023/01/14 09:28:35;;;;;;;0.70;0.70;;;;;;;-4.47;91.02;99910.00;4893042;29;20052;-88
2023/01/14 09:31:03;;;;;;;0.73;0.73;;;;;;;-4.40;91.11;99929.63;4894296;29;20059;-85
2023/01/14 09:33:30;;;;;;;0.68;0.68;;;;;;;-4.40;91.37;99921.72;4889621;29;20056;-85
2023/01/14 09:36:01;;;;;;;0.80;0.80;;;;;;;-4.39;91.59;99930.47;4893384;29;20112;-85
2023/01/14 09:38:28;;;;;;;0.90;0.90;;;;;;;-4.38;91.64;99918.94;4905265;29;20044;-87
2023/01/14 09:40:55;;;;;;;0.60;0.60;;;;;;;-4.35;91.86;99937.16;4903763;29;20049;-86
2023/01/14 09:43:36;;;;;;;0.90;0.90;;;;;;;-4.34;91.99;99927.44;4915077;29;20079;-85
2023/01/14 09:46:23;;;;;;;0.88;0.88;;;;;;;-4.40;91.96;99927.00;5084239;28;20461;-85
2023/01/14 09:48:52;;;;;;;0.80;0.80;;;;;;;-4.40;92.30;99916.44;5028230;28;20109;-84
2023/01/14 09:51:22;;;;;;;0.80;0.80;;;;;;;-4.33;92.34;99929.13;5035010;28;20053;-85
2023/01/14 09:54:09;;;;;;;0.60;0.60;;;;;;;-4.35;92.24;99924.00;5071901;28;20055;-84
2023/01/14 09:56:45;;;;;;;0.70;0.70;;;;;;;-4.34;92.67;99935.34;5096547;28;20602;-85
2023/01/14 09:59:29;;;;;;;0.70;0.70;;;;;;;-4.32;92.67;99929.00;5068703;28;20048;-83
2023/01/14 10:02:11;;;;;;;0.80;0.80;;;;;;;-4.34;92.88;99917.75;5066733;28;20076;-84
2023/01/14 10:04:44;;;;;;;0.90;0.90;;;;;;;-4.33;93.01;99926.47;5068932;28;20045;-85
2023/01/14 10:07:13;;;;;;;0.80;0.80;;;;;;;-4.36;93.02;99928.41;5046044;28;20774;-83
2023/01/14 10:09:50;;;;;;;0.60;0.60;;;;;;;-4.37;93.20;99932.00;5051608;28;20055;-83
2023/01/14 10:12:22;;;;;;;0.77;0.77;;;;;;;-4.43;93.48;99929.03;5052560;28;20053;-79
2023/01/14 10:14:55;;;;;;;0.85;0.85;;;;;;;-4.39;93.66;99933.94;5082883;28;20053;-80
2023/01/14 10:17:26;;;;;;;0.80;0.80;;;;;;;-4.40;93.96;99916.44;5064005;28;20095;-81
2023/01/14 10:19:53;;;;;;;0.80;0.80;;;;;;;-4.39;94.27;99919.91;5065096;28;20049;-80
2023/01/14 10:23:08;;;;;;;0.80;0.80;;;;;;;-4.34;94.18;99914.28;5065849;28;20048;-81
2023/01/14 10:25:36;;;;;;;0.63;0.63;;;;;;;-4.31;94.43;99924.56;5046785;28;20052;-82
2023/01/14 10:28:10;;;;;;;0.60;0.60;;;;;;;-4.28;94.52;99916.38;5044197;28;20102;-81
2023/01/14 10:30:38;;;;;;;0.73;0.73;;;;;;;-4.33;94.53;99910.66;5060869;28;20048;-86
2023/01/14 10:33:07;;;;;;;0.70;0.70;;;;;;;-4.32;94.57;99910.53;5036944;28;20123;-89
2023/01/14 10:35:39;;;;;;;0.70;0.70;;;;;;;-4.34;94.62;99909.00;5011824;28;20053;-84
2023/01/14 10:38:09;;;;;;;0.77;0.77;;;;;;;-4.35;94.83;99900.25;5062087;28;20131;-82
2023/01/14 10:40:36;;;;;;;0.80;0.80;;;;;;;-4.35;94.96;99902.91;5044153;28;20052;-79
2023/01/14 10:43:03;;;;;;;0.80;0.80;;;;;;;-4.39;95.10;99904.94;5058680;28;20110;-82
2023/01/14 10:45:31;;;;;;;0.90;0.90;;;;;;;-4.29;95.29;99904.19;5062500;28;20184;-82
2023/01/14 10:48:04;;;;;;;0.73;0.73;;;;;;;-4.38;95.35;99882.03;5061742;28;20044;-83
2023/01/14 10:50:32;;;;;;;0.80;0.80;;;;;;;-4.36;95.28;99891.50;5060805;28;20049;-82
2023/01/14 10:53:22;;;;;;;0.93;0.93;;;;;;;-4.28;95.55;99903.22;5044130;28;20191;-79
2023/01/14 10:55:58;;;;;;;0.70;0.70;;;;;;;-4.24;95.53;99888.81;5040081;28;20073;-80
2023/01/14 10:58:35;;;;;;;0.70;0.70;;;;;;;-4.23;95.88;99898.38;5036825;28;20213;-79
2023/01/14 11:01:07;;;;;;;0.70;0.70;;;;;;;-4.25;95.85;99897.72;5045175;28;20167;-77
2023/01/14 11:03:39;;;;;;;0.60;0.60;;;;;;;-4.30;96.14;99873.50;5035808;28;20466;-78
2023/01/14 11:06:10;;;;;;;0.65;0.65;;;;;;;-4.34;96.18;99894.03;5039801;28;20059;-79
2023/01/14 11:08:55;;;;;;;0.57;0.57;;;;;;;-4.32;96.52;99892.09;5041962;28;20056;-79
2023/01/14 11:11:37;;;;;;;0.80;0.80;;;;;;;-4.33;96.39;99887.78;5037153;28;20080;-80
2023/01/14 11:14:36;;;;;;;0.55;0.55;;;;;;;-4.30;96.71;99878.78;5023048;28;20508;-80
2023/01/14 11:17:26;;;;;;;0.70;0.70;;;;;;;-4.34;97.00;99890.56;5043206;28;20046;-78
2023/01/14 11:20:23;;;;;;;0.60;0.60;;;;;;;-4.34;97.22;99890.56;5040412;28;20049;-79
2023/01/14 11:22:58;;;;;;;0.80;0.80;;;;;;;-4.35;97.09;99889.72;5040767;28;20057;-79
2023/01/14 11:25:25;;;;;;;0.80;0.80;;;;;;;-4.33;97.51;99876.41;5022942;28;20053;-80
2023/01/14 11:27:53;;;;;;;0.68;0.68;;;;;;;-4.30;97.56;99894.59;5050542;28;20543;-79
2023/01/14 11:30:22;;;;;;;0.80;0.80;;;;;;;-4.29;97.55;99889.19;5051350;28;20132;-78
2023/01/14 11:32:51;;;;;;;0.73;0.73;;;;;;;-4.32;97.59;99886.81;5035136;28;20055;-79
2023/01/14 11:35:37;;;;;;;0.80;0.80;;;;;;;-4.35;97.83;99892.34;5055627;28;20140;-83
2023/01/14 11:38:05;;;;;;;0.70;0.70;;;;;;;-4.37;97.75;99891.66;5023260;28;20607;-82
2023/01/14 11:43:22;;;;;;;0.80;0.80;;;;;;;-4.30;97.77;99868.22;5032097;28;20056;-84
2023/01/14 11:46:12;;;;;;;0.60;0.60;;;;;;;-4.32;97.40;99891.28;5034045;28;20061;-83
2023/01/14 11:48:40;;;;;;;0.70;0.70;;;;;;;-4.35;97.71;99892.34;4998569;28;20056;-83
2023/01/14 11:51:17;;;;;;;0.63;0.63;;;;;;;-4.32;97.65;99900.00;5013901;28;20508;-86
2023/01/14 11:53:49;;;;;;;0.80;0.80;;;;;;;-4.28;97.71;99885.63;5035600;28;20132;-84
2023/01/14 11:56:22;;;;;;;0.90;0.90;;;;;;;-4.27;97.66;99897.81;5036927;28;20150;-83
2023/01/14 11:58:49;;;;;;;0.70;0.70;;;;;;;-4.29;97.58;99905.00;5034007;28;20526;-88
2023/01/14 12:01:38;;;;;;;0.80;0.80;;;;;;;-4.27;97.42;99891.72;5049710;28;20045;-84
2023/01/14 12:04:16;;;;;;;0.68;0.68;;;;;;;-4.27;97.14;99894.34;5042983;28;20361;-83
2023/01/14 12:06:54;;;;;;;0.60;0.60;;;;;;;-4.30;97.35;99900.72;5022579;28;20053;-84
2023/01/14 12:09:29;;;;;;;0.90;0.90;;;;;;;-4.32;96.92;99886.81;5037195;28;20060;-85
2023/01/14 12:12:10;;;;;;;0.80;0.80;;;;;;;-4.37;96.43;99895.09;5043057;28;20045;-82
2023/01/14 12:17:34;;;;;;;0.55;0.55;;;;;;;-4.34;96.27;99893.19;5032679;28;20060;-83
2023/01/14 12:20:11;;;;;;;0.70;0.70;;;;;;;-4.37;96.17;99896.91;5030699;28;20060;-83
2023/01/14 12:22:46;;;;;;;0.60;0.60;;;;;;;-4.36;96.62;99894.13;5005999;28;20164;-83
2023/01/14 12:25:23;;;;;;;0.75;0.75;;;;;;;-4.34;96.19;99909.00;5041348;28;20057;-87